Latest Weather Observations for Hartz Mountains

IDT60801

Issued at 11:05 am EST Friday 29 August 2014 (issued every 30 minutes, with the page automatically refreshed every 10 minutes)

About weather observations | Map of weather stations | Latest weather observations for TAS | Other Formats
Station Details ID: 094191 Name: HARTZ MOUNTAIN (KEOGHS PIMPLE) Lat: -43.20 Lon: 146.77 Height: 831.0 m
Data from the previous 72 hours. | See also: Recent months at Hartz Mountains
Date/Time
EST
Temp
°C
App
Temp
°C
Dew
Point
Rel
Hum
%
Delta-T
°C
Wind Press
QNH
hPa
Press
MSL
hPa
Rain
since 9 am
mm
Dir
 
Spd
km/h
Gust
km/h
Spd
kts
Gust
kts
29/11:00am 12.8 9.6 5.2 60 3.7 NNE 11 17 6 9 - - 0.0
29/10:30am 12.1 8.9 5.3 63 3.3 NNE 11 15 6 8 - - 0.0
29/10:00am 12.0 9.5 6.5 69 2.7 ENE 9 13 5 7 - - 0.0
29/09:30am 10.7 8.3 5.3 69 2.6 ENE 7 11 4 6 - - 0.0
29/09:00am 8.0 6.3 3.8 75 1.9 SW 2 7 1 4 - - 0.0
29/08:30am 6.9 4.2 3.9 81 1.4 SSW 7 11 4 6 - - 0.0
29/08:00am 6.0 1.8 3.8 86 1.0 SW 15 19 8 10 - - 0.0
29/07:30am 5.1 0.9 3.6 90 0.7 WSW 15 19 8 10 - - 0.0
29/07:00am 5.1 0.6 4.2 94 0.4 WSW 17 20 9 11 - - 0.0
29/06:30am 5.2 0.7 4.2 93 0.4 SW 17 19 9 10 - - 0.0
29/06:00am 5.9 2.1 3.7 86 1.0 SW 13 20 7 11 - - 0.0
29/05:30am 5.5 2.4 3.5 87 0.9 S 9 15 5 8 - - 0.0
29/05:00am 5.2 0.3 3.9 91 0.6 W 19 26 10 14 - - 0.0
29/04:30am 5.4 -0.8 4.2 92 0.5 W 26 33 14 18 - - 0.0
29/04:00am 5.7 -1.3 4.3 91 0.6 W 30 35 16 19 - - 0.0
29/03:30am 5.8 -0.8 4.4 91 0.6 W 28 35 15 19 - - 0.0
29/03:00am 5.9 -1.0 4.7 92 0.5 W 30 35 16 19 - - 0.0
29/02:30am 6.0 -0.4 5.0 93 0.5 W 28 33 15 18 - - 0.0
29/02:00am 6.3 0.2 4.9 91 0.6 W 26 32 14 17 - - 0.0
29/01:30am 6.8 0.8 5.4 91 0.7 W 26 32 14 17 - - 0.0
29/01:00am 6.7 1.6 5.8 94 0.4 W 22 26 12 14 - - 0.0
29/12:30am 6.5 2.7 5.9 96 0.3 W 15 19 8 10 - - 0.0
29/12:00am 6.7 3.3 5.8 94 0.4 W 13 20 7 11 - - 0.0
 
Date/Time
EST
Temp
°C
App
Temp
°C
Dew
Point
Rel
Hum
%
Delta-T
°C
Wind Press
QNH
hPa
Press
MSL
hPa
Rain
since 9 am
mm
Dir
 
Spd
km/h
Gust
km/h
Spd
kts
Gust
kts
28/11:30pm 6.6 5.6 5.7 94 0.4 CALM 0 0 0 0 - - 0.0
28/11:00pm 6.6 5.6 5.6 93 0.5 CALM 0 0 0 0 - - 0.0
28/10:30pm 6.7 5.7 5.5 92 0.6 CALM 0 0 0 0 - - 0.0
28/10:00pm 7.0 6.0 5.5 90 0.7 CALM 0 0 0 0 - - 0.0
28/09:30pm 7.0 5.6 5.6 91 0.7 S 2 7 1 4 - - 0.0
28/09:00pm 6.6 3.9 5.6 93 0.5 S 9 11 5 6 - - 0.0
28/08:30pm 6.8 4.1 5.6 92 0.6 SE 9 11 5 6 - - 0.0
28/08:00pm 6.8 4.1 5.7 93 0.5 SE 9 13 5 7 - - 0.0
28/07:30pm 7.1 4.5 6.2 94 0.4 SE 9 11 5 6 - - 0.0
28/07:00pm 7.2 4.3 6.3 94 0.4 SE 11 13 6 7 - - 0.0
28/06:30pm 7.3 5.1 6.2 93 0.5 ESE 7 7 4 4 - - 0.0
28/06:00pm 7.6 5.4 6.1 90 0.7 S 7 7 4 4 - - 0.0
28/05:30pm 7.8 5.6 6.4 91 0.7 SSE 7 9 4 5 - - 0.0
28/05:00pm 8.3 6.4 6.8 90 0.7 SE 6 7 3 4 - - 0.0
28/04:30pm 8.9 6.1 7.0 88 0.9 ESE 11 15 6 8 - - 0.0
28/04:00pm 10.5 8.1 7.2 80 1.6 E 9 13 5 7 - - 0.0
28/03:30pm 12.4 11.3 6.9 69 2.8 WNW 2 9 1 5 - - 0.0
28/03:00pm 11.2 9.0 6.3 72 2.4 WSW 7 13 4 7 - - 0.0
28/02:30pm 12.3 9.8 6.4 67 2.9 W 9 15 5 8 - - 0.0
28/02:00pm 10.5 9.6 7.6 82 1.5 N 2 7 1 4 - - 0.0
28/01:30pm 10.4 8.5 6.9 79 1.7 NE 6 11 3 6 - - 0.0
28/01:00pm 10.9 9.1 7.8 81 1.6 NE 7 13 4 7 - - 0.0
28/12:30pm 11.4 9.6 7.9 79 1.8 NNE 7 11 4 6 - - 0.0
28/12:00pm 10.3 9.3 7.2 81 1.5 N 2 15 1 8 - - 0.0
28/11:30am 10.4 8.1 7.5 82 1.5 NNE 9 11 5 6 - - 0.0
28/11:00am 10.4 8.8 8.0 85 1.2 NE 6 7 3 4 - - 0.0
28/10:30am 9.2 7.3 6.6 84 1.3 NE 6 11 3 6 - - 0.0
28/10:00am 9.9 7.8 6.8 81 1.5 ENE 7 11 4 6 - - 0.0
28/09:30am 8.9 7.0 6.7 86 1.1 E 6 9 3 5 - - 0.0
28/09:00am 8.0 6.7 6.1 88 0.9 SSE 2 7 1 4 - - 0.2
28/08:30am 7.0 4.8 5.5 90 0.7 ESE 6 7 3 4 - - 0.2
28/08:00am 6.5 4.3 5.1 91 0.6 SE 6 9 3 5 - - 0.2
28/07:30am 6.3 4.1 5.1 92 0.6 SSE 6 7 3 4 - - 0.2
28/07:00am 6.0 3.6 5.1 94 0.4 S 7 9 4 5 - - 0.2
28/06:30am 6.0 3.2 5.1 94 0.4 ESE 9 9 5 5 - - 0.2
28/06:00am 6.2 4.4 5.2 93 0.5 E 4 9 2 5 - - 0.2
28/05:30am 6.5 5.3 4.8 89 0.8 CALM 0 0 0 0 - - 0.2
28/05:00am 6.2 5.0 4.7 90 0.7 CALM 0 0 0 0 - - 0.2
28/04:30am 6.5 5.4 5.1 91 0.6 CALM 0 0 0 0 - - 0.2
28/04:00am 6.2 5.0 4.8 91 0.6 CALM 0 6 0 3 - - 0.2
28/03:30am 6.3 4.0 4.9 91 0.6 NNW 6 9 3 5 - - 0.2
28/03:00am 6.5 4.1 5.1 91 0.6 WNW 7 9 4 5 - - 0.2
28/02:30am 6.6 3.9 5.4 92 0.6 W 9 11 5 6 - - 0.2
28/02:00am 6.9 4.2 5.7 92 0.6 WNW 9 11 5 6 - - 0.2
28/01:30am 7.0 4.4 6.1 94 0.4 WNW 9 11 5 6 - - 0.2
28/01:00am 6.9 4.2 5.8 93 0.5 NW 9 11 5 6 - - 0.2
28/12:30am 7.1 4.8 5.9 92 0.6 WNW 7 9 4 5 - - 0.2
28/12:00am 7.2 4.2 6.1 93 0.5 WNW 11 13 6 7 - - 0.2
 
Date/Time
EST
Temp
°C
App
Temp
°C
Dew
Point
Rel
Hum
%
Delta-T
°C
Wind Press
QNH
hPa
Press
MSL
hPa
Rain
since 9 am
mm
Dir
 
Spd
km/h
Gust
km/h
Spd
kts
Gust
kts
27/11:30pm 6.9 1.7 5.7 92 0.6 W 22 28 12 15 - - 0.2
27/11:00pm 6.6 2.3 5.1 90 0.7 W 17 20 9 11 - - 0.2
27/10:30pm 6.8 3.5 4.8 87 0.9 W 11 11 6 6 - - 0.2
27/10:00pm 6.8 3.8 4.1 83 1.2 WNW 9 11 5 6 - - 0.2
27/09:30pm 7.2 4.5 2.9 74 1.9 NNW 6 7 3 4 - - 0.2
27/09:00pm 7.5 5.9 2.6 71 2.2 CALM 0 0 0 0 - - 0.2
27/08:30pm 7.5 4.8 2.6 71 2.2 SE 6 9 3 5 - - 0.2
27/08:00pm 7.8 4.6 3.1 72 2.1 SE 9 11 5 6 - - 0.2
27/07:30pm 7.9 4.3 3.2 72 2.1 SE 11 13 6 7 - - 0.2
27/07:00pm 8.0 4.4 3.1 71 2.2 SE 11 15 6 8 - - 0.2
27/06:30pm 8.1 4.6 3.6 73 2.0 ESE 11 13 6 7 - - 0.2
27/06:00pm 8.8 6.5 3.0 67 2.6 E 4 9 2 5 - - 0.2
27/05:30pm 9.5 6.1 1.9 59 3.3 NW 9 9 5 5 - - 0.2
27/05:00pm 10.5 7.2 2.6 58 3.6 NW 9 13 5 7 - - 0.2
27/04:30pm 13.3 10.1 2.8 49 4.9 W 9 11 5 6 - - 0.2
27/04:00pm 13.9 9.9 2.8 47 5.2 W 13 19 7 10 - - 0.2
27/03:30pm 13.7 9.1 1.7 44 5.5 W 15 19 8 10 - - 0.2
27/03:00pm 13.9 9.8 2.5 46 5.3 W 13 22 7 12 - - 0.2
27/02:30pm 13.7 8.4 1.7 44 5.5 WSW 19 24 10 13 - - 0.2
27/02:00pm 14.6 9.6 1.2 40 6.1 WNW 17 26 9 14 - - 0.2
27/01:35pm 13.0 5.5 -1.7 36 6.2 W 28 48 15 26 - - 0.2
27/01:30pm 12.9 6.2 -1.4 37 6.0 W 24 48 13 26 - - 0.2
27/01:19pm 12.9 5.5 -0.4 40 5.7 WNW 28 46 15 25 - - 0.2
27/01:00pm 13.9 8.6 2.8 47 5.2 WNW 20 30 11 16 - - 0.2
27/12:30pm 14.3 8.3 -1.7 33 6.8 W 20 30 11 16 - - 0.2
27/12:00pm 13.7 8.3 -1.5 35 6.4 W 17 26 9 14 - - 0.2
27/11:30am 13.0 7.5 0.4 42 5.5 W 19 32 10 17 - - 0.2
27/11:00am 12.0 6.0 -1.2 40 5.5 W 20 30 11 16 - - 0.0
27/10:30am 11.2 4.6 -0.6 44 5.0 WNW 24 28 13 15 - - 0.0
27/10:00am 11.0 5.7 -0.8 44 5.0 WNW 17 20 9 11 - - 0.0
27/09:30am 10.7 6.0 0.7 50 4.3 NW 15 20 8 11 - - 0.0
27/09:00am 10.1 5.5 1.5 55 3.8 NW 15 19 8 10 - - 0.0
27/08:30am 8.4 3.5 1.8 63 2.9 WNW 17 20 9 11 - - 0.0
27/08:00am 7.6 2.3 1.7 66 2.5 WNW 19 22 10 12 - - 0.0
27/07:30am 7.4 1.8 1.3 65 2.6 WNW 20 24 11 13 - - 0.0
27/07:00am 6.9 0.6 1.8 70 2.2 WNW 24 28 13 15 - - 0.0
27/06:30am 6.1 0.7 2.4 77 1.6 WNW 20 26 11 14 - - 0.0
27/06:00am 5.9 0.7 2.5 79 1.5 WNW 19 24 10 13 - - 0.0
27/05:30am 6.4 1.2 2.3 75 1.8 WNW 19 20 10 11 - - 0.0
27/05:00am 6.4 1.6 2.7 77 1.6 WNW 17 20 9 11 - - 0.0
27/04:30am 6.8 0.7 2.9 76 1.7 WNW 24 28 13 15 - - 0.0
27/04:00am 6.7 1.1 3.3 79 1.5 WNW 22 26 12 14 - - 0.0
27/03:30am 6.5 0.6 3.8 83 1.2 WNW 24 28 13 15 - - 0.0
27/03:00am 6.6 1.1 4.1 84 1.1 WNW 22 26 12 14 - - 0.0
27/02:30am 6.2 1.8 4.5 89 0.8 WNW 17 20 9 11 - - 0.0
27/02:00am 6.1 3.6 4.7 91 0.6 W 7 11 4 6 - - 0.0
27/01:30am 6.7 5.3 5.7 93 0.5 NNW 2 7 1 4 - - 0.0
27/01:00am 6.7 2.8 5.3 91 0.7 NW 15 20 8 11 - - 0.0
27/12:30am 6.8 3.7 5.6 92 0.6 WNW 11 13 6 7 - - 0.0
27/12:00am 7.5 2.7 5.8 89 0.8 WNW 20 24 11 13 - - 0.0
 
Date/Time
EST
Temp
°C
App
Temp
°C
Dew
Point
Rel
Hum
%
Delta-T
°C
Wind Press
QNH
hPa
Press
MSL
hPa
Rain
since 9 am
mm
Dir
 
Spd
km/h
Gust
km/h
Spd
kts
Gust
kts
26/11:30pm 7.8 3.3 5.9 88 0.9 WNW 19 20 10 11 - - 0.0
26/11:00pm 7.9 3.4 6.2 89 0.8 NW 19 20 10 11 - - 0.0
26/10:30pm 8.0 3.9 6.3 89 0.8 NW 17 19 9 10 - - 0.0
26/10:00pm 7.8 4.4 6.1 89 0.8 NNW 13 15 7 8 - - 0.0
26/09:30pm 8.4 5.4 6.2 86 1.1 N 11 15 6 8 - - 0.0
26/09:00pm 8.8 5.5 6.4 85 1.2 NNW 13 15 7 8 - - 0.0
26/08:30pm 8.6 5.6 6.2 85 1.2 NNW 11 15 6 8 - - 0.0
26/08:00pm 8.6 7.7 6.1 84 1.2 CALM 0 0 0 0 - - 0.0
26/07:30pm 8.9 8.0 6.0 82 1.4 CALM 0 0 0 0 - - 0.0
26/07:00pm 9.1 8.2 6.2 82 1.4 CALM 0 0 0 0 - - 0.0
26/06:30pm 8.9 8.0 6.2 83 1.3 CALM 0 0 0 0 - - 0.0
26/06:00pm 8.9 8.1 6.7 86 1.1 CALM 0 0 0 0 - - 0.0
26/05:30pm 9.3 6.8 6.7 84 1.3 N 9 11 5 6 - - 0.0
26/05:00pm 10.6 8.1 6.7 77 1.9 N 9 11 5 6 - - 0.0
26/04:30pm 11.4 9.4 7.1 75 2.2 NNE 7 11 4 6 - - 0.0
26/04:00pm 11.3 8.9 7.0 75 2.2 NNE 9 13 5 7 - - 0.0
26/03:30pm 11.9 9.9 7.2 73 2.4 NE 7 11 4 6 - - 0.0
26/03:00pm 12.4 10.2 7.9 74 2.3 NNE 9 15 5 8 - - 0.0
26/02:30pm 12.8 10.4 7.0 68 2.9 N 9 15 5 8 - - 0.0
26/02:00pm 12.0 9.7 7.3 73 2.4 N 9 15 5 8 - - 0.0
26/01:30pm 13.7 10.8 6.6 62 3.6 N 11 19 6 10 - - 0.0
26/01:00pm 14.3 11.5 7.1 62 3.7 NNE 11 15 6 8 - - 0.0
26/12:30pm 14.2 12.0 7.7 65 3.4 N 9 15 5 8 - - 0.0
26/12:00pm 14.9 12.3 6.0 55 4.5 NNW 9 17 5 9 - - 0.0
26/11:30am 12.5 9.1 5.9 64 3.3 WNW 13 20 7 11 - - 0.0

Other Formats:

Comma delimited format used in spreadsheet applications
http://www.bom.gov.au/fwo/IDT60801/IDT60801.94977.axf

JavaScript Object Notation format (JSON) in row-major order
http://www.bom.gov.au/fwo/IDT60801/IDT60801.94977.json